Time;durP1;ratioP1;P1;durP2;ratioP2;P2;SDS_P1;SDS_P2;PMS_P1;PMS_P2;Temp;Humidity;BMP_temperature;BMP_pressure;BME280_temperature;BME280_humidity;BME280_pressure;Samples;Min_cycle;Max_cycle;Signal;HPM_P1;HPM_P2
2023/09/07 00:02:32;;;;;;;0.00;0.00;;;;;;;16.96;100.00;97025.25;5110985;27;20130;-77
2023/09/07 00:05:20;;;;;;;0.00;0.00;;;;;;;16.98;100.00;97029.31;5112134;27;20040;-78
2023/09/07 00:08:06;;;;;;;0.00;0.00;;;;;;;17.09;100.00;97031.97;5111057;27;20047;-77
2023/09/07 00:10:52;;;;;;;0.00;0.00;;;;;;;16.84;100.00;97028.28;5111898;27;20544;-77
2023/09/07 00:13:38;;;;;;;0.00;0.00;;;;;;;16.78;100.00;97020.47;5111272;27;20311;-78
2023/09/07 00:16:24;;;;;;;0.00;0.00;;;;;;;16.91;100.00;97018.00;5110745;27;20268;-77
2023/09/07 00:19:09;;;;;;;0.03;0.03;;;;;;;16.89;100.00;97017.47;5088012;27;20047;-78
2023/09/07 00:21:55;;;;;;;0.00;0.00;;;;;;;16.99;100.00;97019.31;5110175;27;20031;-78
2023/09/07 00:24:41;;;;;;;0.00;0.00;;;;;;;16.75;100.00;97019.13;5110822;27;20482;-78
2023/09/07 00:27:27;;;;;;;0.00;0.00;;;;;;;16.64;100.00;97017.47;5109564;27;20527;-78
2023/09/07 00:30:14;;;;;;;0.00;0.00;;;;;;;16.54;100.00;97007.50;5110333;27;20043;-78
2023/09/07 00:33:02;;;;;;;0.00;0.00;;;;;;;16.61;100.00;97023.44;5093760;27;20051;-78
2023/09/07 00:35:48;;;;;;;0.00;0.00;;;;;;;16.60;100.00;97019.94;5097003;28;20057;-78
2023/09/07 00:38:34;;;;;;;0.00;0.00;;;;;;;16.64;100.00;97020.19;5095729;27;20043;-76
2023/09/07 00:41:19;;;;;;;0.00;0.00;;;;;;;16.61;100.00;97018.84;5096561;28;20035;-76
2023/09/07 00:44:05;;;;;;;0.05;0.05;;;;;;;16.51;100.00;97018.88;5093667;28;20525;-76
2023/09/07 00:46:51;;;;;;;0.10;0.10;;;;;;;16.48;100.00;97016.69;5095407;28;20493;-76
2023/09/07 00:49:38;;;;;;;0.00;0.00;;;;;;;16.39;100.00;97016.44;5096990;28;20043;-76
2023/09/07 00:52:25;;;;;;;0.00;0.00;;;;;;;16.41;100.00;97011.56;5080726;28;20109;-76
2023/09/07 00:55:12;;;;;;;0.00;0.00;;;;;;;16.42;100.00;97010.50;5075015;28;20332;-77
2023/09/07 00:57:58;;;;;;;0.00;0.00;;;;;;;16.30;100.00;97001.88;5089088;28;20048;-77
2023/09/07 01:00:44;;;;;;;0.00;0.00;;;;;;;16.36;100.00;96997.28;5076517;28;20047;-76
2023/09/07 01:03:30;;;;;;;0.00;0.00;;;;;;;16.39;100.00;96992.13;5073318;28;20028;-77
2023/09/07 01:06:26;;;;;;;0.10;0.10;;;;;;;16.49;100.00;96998.59;5075187;28;20386;-77
2023/09/07 01:09:23;;;;;;;0.10;0.10;;;;;;;16.54;100.00;96999.41;5070365;28;20525;-76
2023/09/07 01:12:14;;;;;;;0.00;0.00;;;;;;;16.53;100.00;96983.47;5087697;28;20070;-77
2023/09/07 01:15:01;;;;;;;0.00;0.00;;;;;;;16.50;100.00;96987.53;5087299;28;20043;-77
2023/09/07 01:17:47;;;;;;;0.00;0.00;;;;;;;16.51;100.00;96986.44;5064241;28;20471;-77
2023/09/07 01:20:34;;;;;;;0.00;0.00;;;;;;;16.59;100.00;96974.28;5090029;28;20051;-77
2023/09/07 01:23:20;;;;;;;0.00;0.00;;;;;;;16.70;100.00;96973.19;5088575;28;20040;-76
2023/09/07 01:26:08;;;;;;;0.00;0.00;;;;;;;16.71;100.00;96974.81;5088660;28;20151;-76
2023/09/07 01:29:00;;;;;;;0.10;0.10;;;;;;;16.59;100.00;96966.97;5073775;28;20592;-77
2023/09/07 01:31:47;;;;;;;0.10;0.10;;;;;;;16.63;100.00;96972.63;5073514;28;20609;-77
2023/09/07 01:34:33;;;;;;;0.10;0.10;;;;;;;16.61;100.00;96970.22;5090075;28;20074;-77
2023/09/07 01:37:19;;;;;;;0.00;0.00;;;;;;;16.61;100.00;96972.09;5074922;28;20043;-77
2023/09/07 01:40:07;;;;;;;0.00;0.00;;;;;;;16.62;100.00;96977.22;5089981;28;20512;-77
2023/09/07 01:42:53;;;;;;;0.00;0.00;;;;;;;16.57;100.00;96966.44;5085526;28;20040;-77
2023/09/07 01:45:39;;;;;;;0.00;0.00;;;;;;;16.55;100.00;96975.91;5067460;28;20040;-77
2023/09/07 01:48:24;;;;;;;0.00;0.00;;;;;;;16.56;100.00;96969.41;5087746;28;20059;-77
2023/09/07 01:51:10;;;;;;;0.00;0.00;;;;;;;16.62;100.00;96966.44;5100135;27;20043;-77
2023/09/07 01:53:56;;;;;;;0.10;0.10;;;;;;;16.66;100.00;96967.50;5112875;27;20599;-77
2023/09/07 01:56:42;;;;;;;0.00;0.00;;;;;;;16.63;100.00;96962.63;5113167;27;20085;-78
2023/09/07 01:59:28;;;;;;;0.03;0.03;;;;;;;16.61;100.00;96969.41;5096860;27;20035;-77
2023/09/07 02:02:14;;;;;;;0.00;0.00;;;;;;;16.55;100.00;96971.31;5108750;27;20039;-77
2023/09/07 02:05:00;;;;;;;0.03;0.03;;;;;;;16.51;100.00;96974.84;5098766;27;20561;-77
2023/09/07 02:07:49;;;;;;;0.00;0.00;;;;;;;16.30;100.00;96972.16;5112008;27;20031;-77
2023/09/07 02:10:35;;;;;;;0.00;0.00;;;;;;;16.36;100.00;96954.88;5111664;27;20107;-77
2023/09/07 02:13:21;;;;;;;0.00;0.00;;;;;;;16.39;100.00;96972.41;5112040;27;20501;-77
2023/09/07 02:16:06;;;;;;;0.00;0.00;;;;;;;16.34;100.00;96970.56;5112724;27;20545;-77
2023/09/07 02:19:01;;;;;;;0.10;0.10;;;;;;;16.29;100.00;96957.06;5097745;27;20039;-77
2023/09/07 02:21:47;;;;;;;0.00;0.00;;;;;;;16.27;100.00;96956.53;5085577;27;20260;-78
2023/09/07 02:24:34;;;;;;;0.00;0.00;;;;;;;16.15;100.00;96964.09;5098830;27;20737;-77
2023/09/07 02:27:20;;;;;;;0.00;0.00;;;;;;;16.09;100.00;96962.47;5096236;27;20927;-77
2023/09/07 02:30:07;;;;;;;0.00;0.00;;;;;;;16.09;100.00;96968.66;5112572;27;20038;-77
2023/09/07 02:32:56;;;;;;;0.00;0.00;;;;;;;16.11;100.00;96968.41;5111305;27;20047;-77
2023/09/07 02:35:41;;;;;;;0.03;0.03;;;;;;;16.12;100.00;96967.34;5098718;27;20719;-77
2023/09/07 02:38:27;;;;;;;0.10;0.10;;;;;;;16.11;100.00;96965.72;5097810;27;20161;-77
2023/09/07 02:41:13;;;;;;;0.10;0.10;;;;;;;16.09;100.00;96962.47;5097796;27;20039;-77
2023/09/07 02:43:59;;;;;;;0.00;0.00;;;;;;;16.07;100.00;96967.34;5112490;27;20454;-78
2023/09/07 02:46:45;;;;;;;0.00;0.00;;;;;;;16.04;100.00;96968.69;5112991;27;20119;-77
2023/09/07 02:49:31;;;;;;;0.05;0.05;;;;;;;16.05;100.00;96969.50;5110243;27;20491;-77
2023/09/07 02:52:17;;;;;;;0.00;0.00;;;;;;;16.04;100.00;96963.28;5109796;27;20051;-78
2023/09/07 02:55:04;;;;;;;0.10;0.10;;;;;;;16.04;100.00;96954.38;5096504;27;20047;-77
2023/09/07 02:57:50;;;;;;;0.10;0.10;;;;;;;16.10;100.00;96950.59;5090273;27;20043;-77
2023/09/07 03:00:44;;;;;;;0.10;0.10;;;;;;;16.12;100.00;96965.44;5098204;27;20181;-78
2023/09/07 03:03:31;;;;;;;0.00;0.00;;;;;;;16.11;100.00;96960.31;5090648;27;20039;-78
2023/09/07 03:06:17;;;;;;;0.10;0.10;;;;;;;16.10;100.00;96953.28;5111309;27;20042;-78
2023/09/07 03:09:08;;;;;;;0.08;0.08;;;;;;;16.03;100.00;96958.13;5096767;27;20485;-78
2023/09/07 03:11:56;;;;;;;0.10;0.10;;;;;;;15.99;100.00;96959.78;5100325;27;20051;-78
2023/09/07 03:14:44;;;;;;;0.00;0.00;;;;;;;15.96;100.00;96958.44;5111535;27;20285;-78
2023/09/07 03:17:30;;;;;;;0.00;0.00;;;;;;;15.96;100.00;96955.75;5097966;27;20469;-78
2023/09/07 03:20:16;;;;;;;0.10;0.10;;;;;;;15.94;100.00;96957.06;5095451;27;20515;-78
2023/09/07 03:23:08;;;;;;;0.00;0.00;;;;;;;16.03;100.00;96958.13;5097470;27;20832;-78
2023/09/07 03:25:55;;;;;;;0.00;0.00;;;;;;;16.02;100.00;96961.94;5099176;27;20058;-77
2023/09/07 03:28:41;;;;;;;0.00;0.00;;;;;;;16.01;100.00;96963.81;5087913;27;20061;-77
2023/09/07 03:31:27;;;;;;;0.05;0.05;;;;;;;16.01;100.00;96955.72;5094498;27;20096;-78
2023/09/07 03:34:14;;;;;;;0.00;0.00;;;;;;;16.04;100.00;96951.69;5094279;27;20201;-78
2023/09/07 03:37:00;;;;;;;0.10;0.10;;;;;;;16.05;100.00;96950.59;5107988;27;20043;-78
2023/09/07 03:39:45;;;;;;;0.00;0.00;;;;;;;16.05;100.00;96951.41;5089510;27;20452;-78
2023/09/07 03:42:31;;;;;;;0.10;0.10;;;;;;;15.97;100.00;96948.44;5107695;27;20069;-78
2023/09/07 03:45:17;;;;;;;0.10;0.10;;;;;;;15.94;100.00;96952.47;5089024;27;20660;-78
2023/09/07 03:48:04;;;;;;;0.00;0.00;;;;;;;15.93;100.00;96952.75;5107416;27;20048;-77
2023/09/07 03:50:50;;;;;;;0.05;0.05;;;;;;;15.92;100.00;96964.63;5096235;27;20047;-78
2023/09/07 03:53:36;;;;;;;0.00;0.00;;;;;;;15.87;100.00;96960.88;5096076;27;20032;-77
2023/09/07 03:56:23;;;;;;;0.10;0.10;;;;;;;15.78;100.00;96959.75;5086513;27;20039;-77
2023/09/07 03:59:11;;;;;;;0.00;0.00;;;;;;;15.71;100.00;96964.63;5087626;28;20039;-78
2023/09/07 04:01:56;;;;;;;0.10;0.10;;;;;;;15.68;100.00;96956.25;5089627;27;20095;-77
2023/09/07 04:04:42;;;;;;;0.00;0.00;;;;;;;15.60;100.00;96952.19;5098842;27;20031;-78
2023/09/07 04:07:29;;;;;;;0.00;0.00;;;;;;;15.57;100.00;96963.50;5110238;27;20508;-77
2023/09/07 04:10:15;;;;;;;0.10;0.10;;;;;;;15.48;100.00;96965.09;5095570;27;20043;-78
2023/09/07 04:13:01;;;;;;;0.03;0.03;;;;;;;15.40;100.00;96960.22;5097384;27;20047;-78
2023/09/07 04:15:49;;;;;;;0.10;0.10;;;;;;;15.31;100.00;96952.66;5112292;27;20938;-78
2023/09/07 04:18:36;;;;;;;0.00;0.00;;;;;;;15.28;100.00;96966.69;5096547;27;20055;-77
2023/09/07 04:21:21;;;;;;;0.00;0.00;;;;;;;15.26;100.00;96954.56;5097837;27;20095;-77
2023/09/07 04:24:08;;;;;;;0.10;0.10;;;;;;;15.24;100.00;96959.38;5097711;27;20039;-77
2023/09/07 04:26:58;;;;;;;0.00;0.00;;;;;;;15.22;100.00;96948.88;5110539;27;20043;-78
2023/09/07 04:29:44;;;;;;;0.10;0.10;;;;;;;15.22;100.00;96956.97;5112417;27;20027;-78
2023/09/07 04:32:30;;;;;;;0.00;0.00;;;;;;;15.23;100.00;96963.16;5098071;27;20047;-77
2023/09/07 04:35:16;;;;;;;0.00;0.00;;;;;;;15.21;100.00;96963.44;5096925;27;20610;-79
2023/09/07 04:38:02;;;;;;;0.00;0.00;;;;;;;15.17;100.00;96965.03;5094764;28;20052;-77
2023/09/07 04:40:48;;;;;;;0.05;0.05;;;;;;;15.05;100.00;96969.84;5110308;27;20047;-77
2023/09/07 04:43:34;;;;;;;0.00;0.00;;;;;;;14.95;100.00;96976.03;5110692;28;20051;-77
2023/09/07 04:46:23;;;;;;;0.10;0.10;;;;;;;14.88;100.00;96969.25;5096769;28;20107;-76
2023/09/07 04:49:09;;;;;;;0.08;0.08;;;;;;;14.88;100.00;96969.25;5083728;28;20046;-76
2023/09/07 04:51:55;;;;;;;0.00;0.00;;;;;;;14.83;100.00;96975.41;5090734;28;20135;-76
2023/09/07 04:54:41;;;;;;;0.00;0.00;;;;;;;14.82;100.00;96971.09;5095421;28;20801;-77
2023/09/07 04:57:28;;;;;;;0.10;0.10;;;;;;;14.71;100.00;96964.88;5111007;28;20039;-76
2023/09/07 05:00:15;;;;;;;0.00;0.00;;;;;;;14.73;100.00;96965.41;5110388;28;20179;-77
2023/09/07 05:03:00;;;;;;;0.00;0.00;;;;;;;14.89;100.00;96963.59;5094694;28;20568;-76
2023/09/07 05:05:53;;;;;;;0.10;0.10;;;;;;;15.17;100.00;96962.31;5091183;28;20737;-77
2023/09/07 05:08:39;;;;;;;;;;;;;;;15.28;100.00;96961.28;5096873;28;20043;-76
2023/09/07 05:11:27;;;;;;;0.00;0.00;;;;;;;15.42;100.00;96969.69;5094359;28;19923;-77
2023/09/07 05:14:13;;;;;;;0.00;0.00;;;;;;;15.46;100.00;96969.94;5084946;28;20046;-77
2023/09/07 05:17:00;;;;;;;0.10;0.10;;;;;;;15.44;100.00;96975.63;5096320;28;20042;-77
2023/09/07 05:19:46;;;;;;;0.00;0.00;;;;;;;15.41;100.00;96972.63;5110235;27;20091;-78
2023/09/07 05:22:36;;;;;;;0.00;0.00;;;;;;;15.41;100.00;96967.22;5098670;27;20114;-77
2023/09/07 05:25:22;;;;;;;0.00;0.00;;;;;;;15.43;100.00;96976.69;5099108;27;20031;-77
2023/09/07 05:28:08;;;;;;;0.00;0.00;;;;;;;15.40;100.00;96977.22;5113120;27;20042;-77
2023/09/07 05:30:54;;;;;;;0.00;0.00;;;;;;;15.45;100.00;96982.63;5114972;27;20035;-78
2023/09/07 05:33:42;;;;;;;0.00;0.00;;;;;;;15.45;100.00;96984.53;5085414;27;20039;-77
2023/09/07 05:36:29;;;;;;;0.10;0.10;;;;;;;15.39;100.00;96991.78;5086449;27;20069;-77
2023/09/07 05:39:15;;;;;;;0.00;0.00;;;;;;;15.35;100.00;96982.63;5099341;27;20127;-78
2023/09/07 05:42:01;;;;;;;0.10;0.10;;;;;;;15.33;100.00;96977.50;5114745;27;20134;-77
2023/09/07 05:44:47;;;;;;;0.00;0.00;;;;;;;15.33;100.00;96982.88;5098804;27;20047;-77
2023/09/07 05:47:33;;;;;;;0.10;0.10;;;;;;;15.55;100.00;96984.53;5111090;27;20384;-77
2023/09/07 05:50:19;;;;;;;0.10;0.10;;;;;;;15.69;100.00;96982.97;5084940;27;20035;-78
2023/09/07 05:53:05;;;;;;;0.00;0.00;;;;;;;15.86;100.00;96988.09;5116654;27;20067;-77
2023/09/07 05:55:52;;;;;;;0.10;0.10;;;;;;;15.91;100.00;96992.72;5102350;27;20043;-77
2023/09/07 05:58:38;;;;;;;0.00;0.00;;;;;;;15.97;100.00;96992.44;5099188;27;20066;-77
2023/09/07 06:01:24;;;;;;;0.10;0.10;;;;;;;16.08;100.00;96993.25;5113883;27;20077;-77
2023/09/07 06:04:10;;;;;;;0.10;0.10;;;;;;;16.09;100.00;96998.38;5112173;27;20121;-77
2023/09/07 06:06:57;;;;;;;0.08;0.08;;;;;;;16.12;100.00;97005.13;5101656;27;20039;-77
2023/09/07 06:09:42;;;;;;;0.00;0.00;;;;;;;16.16;100.00;97006.19;5097777;27;20032;-77
2023/09/07 06:12:28;;;;;;;0.10;0.10;;;;;;;16.18;100.00;97004.03;5096779;27;20086;-77
2023/09/07 06:15:15;;;;;;;0.05;0.05;;;;;;;16.21;100.00;96994.59;5101139;27;20517;-77
2023/09/07 06:18:01;;;;;;;0.00;0.00;;;;;;;16.25;100.00;97004.56;5100597;27;20049;-78
2023/09/07 06:20:47;;;;;;;0.08;0.08;;;;;;;16.34;100.00;96996.72;5111807;27;20037;-77
2023/09/07 06:23:33;;;;;;;0.00;0.00;;;;;;;16.44;100.00;96999.44;5098437;27;20126;-77
2023/09/07 06:26:19;;;;;;;0.10;0.10;;;;;;;16.42;100.00;97005.09;5085122;27;20039;-77
2023/09/07 06:29:05;;;;;;;0.15;0.10;;;;;;;16.49;100.00;97004.00;5092662;27;20073;-77
2023/09/07 06:31:52;;;;;;;0.10;0.10;;;;;;;16.61;100.00;96999.13;5111982;27;20127;-77
2023/09/07 06:34:39;;;;;;;0.10;0.10;;;;;;;16.72;100.00;96998.03;5090421;27;20042;-77
2023/09/07 06:37:25;;;;;;;0.10;0.10;;;;;;;16.83;100.00;96999.63;5097372;27;20072;-77
2023/09/07 06:40:15;;;;;;;0.10;0.10;;;;;;;17.01;100.00;97002.81;5097729;27;20043;-77
2023/09/07 06:43:05;;;;;;;0.10;0.10;;;;;;;17.07;100.00;96994.41;5114082;27;20054;-77
2023/09/07 06:45:51;;;;;;;0.05;0.05;;;;;;;17.11;100.00;96998.16;5100135;27;20550;-77
2023/09/07 06:48:37;;;;;;;0.00;0.00;;;;;;;17.26;100.00;97005.41;5111161;27;20027;-77
2023/09/07 06:51:26;;;;;;;0.00;0.00;;;;;;;17.31;100.00;97004.59;5099339;27;20157;-77
2023/09/07 06:54:13;;;;;;;0.10;0.10;;;;;;;17.39;100.00;97015.63;5114301;27;20043;-77
2023/09/07 06:57:00;;;;;;;0.10;0.10;;;;;;;17.47;100.00;97017.75;5098554;27;20051;-77
2023/09/07 06:59:46;;;;;;;0.10;0.10;;;;;;;17.55;100.00;97021.75;5112235;27;20084;-77
2023/09/07 07:02:32;;;;;;;0.10;0.10;;;;;;;17.65;100.00;97021.69;5112276;27;20039;-77
2023/09/07 07:05:18;;;;;;;0.10;0.10;;;;;;;17.71;100.00;97019.81;5101120;27;20145;-77
2023/09/07 07:08:04;;;;;;;0.00;0.00;;;;;;;17.89;100.00;97019.13;5099616;27;20134;-77
2023/09/07 07:10:50;;;;;;;0.10;0.10;;;;;;;17.97;100.00;97029.38;5099136;27;20592;-76
2023/09/07 07:13:36;;;;;;;0.10;0.10;;;;;;;18.03;100.00;97024.72;5097623;27;20449;-77
2023/09/07 07:16:22;;;;;;;0.03;0.03;;;;;;;18.16;100.00;97031.41;5112895;27;20054;-77
2023/09/07 07:19:10;;;;;;;0.10;0.10;;;;;;;18.31;100.00;97031.28;5099251;27;20114;-77
2023/09/07 07:21:56;;;;;;;0.00;0.00;;;;;;;18.44;100.00;97036.03;5100162;27;20040;-77
2023/09/07 07:24:42;;;;;;;0.10;0.10;;;;;;;18.55;100.00;97043.00;5095757;27;20042;-77
2023/09/07 07:27:28;;;;;;;0.10;0.10;;;;;;;18.70;100.00;97038.56;5097076;27;20513;-77
2023/09/07 07:30:13;;;;;;;0.00;0.00;;;;;;;18.78;100.00;97040.63;5112371;27;20038;-77
2023/09/07 07:33:00;;;;;;;0.10;0.10;;;;;;;18.87;100.00;97036.19;5079417;27;20031;-77
2023/09/07 07:35:46;;;;;;;0.10;0.10;;;;;;;18.97;100.00;97033.38;5086003;27;20039;-77
2023/09/07 07:38:34;;;;;;;0.03;0.03;;;;;;;18.98;100.00;97034.97;5094091;27;20078;-77
2023/09/07 07:41:20;;;;;;;0.10;0.10;;;;;;;19.09;100.00;97033.78;5111083;27;20042;-77
2023/09/07 07:44:06;;;;;;;0.10;0.10;;;;;;;19.16;100.00;97026.13;5097987;27;20119;-77
2023/09/07 07:46:52;;;;;;;0.10;0.10;;;;;;;19.22;100.00;97026.84;5110439;27;20042;-77
2023/09/07 07:49:38;;;;;;;0.10;0.10;;;;;;;19.33;100.00;97027.53;5098576;27;20058;-77
2023/09/07 07:52:24;;;;;;;0.10;0.10;;;;;;;19.45;100.00;97026.03;5098958;27;20047;-77
2023/09/07 07:55:12;;;;;;;0.10;0.10;;;;;;;19.49;100.00;97026.25;5099166;27;20054;-77
2023/09/07 07:57:58;;;;;;;0.00;0.00;;;;;;;19.60;100.00;97025.03;5083950;27;20150;-77
2023/09/07 08:00:48;;;;;;;0.00;0.00;;;;;;;19.68;100.00;97029.78;5097741;27;20046;-78
2023/09/07 08:03:38;;;;;;;0.00;0.00;;;;;;;19.73;100.00;97020.78;5097307;27;20074;-78
2023/09/07 08:06:24;;;;;;;0.05;0.05;;;;;;;19.84;100.00;97032.28;5094026;27;20096;-78
2023/09/07 08:09:10;;;;;;;0.05;0.05;;;;;;;19.88;100.00;97036.03;5108891;27;20122;-78
2023/09/07 08:11:57;;;;;;;0.10;0.10;;;;;;;19.95;100.00;97025.63;5112986;27;20065;-78
2023/09/07 08:14:43;;;;;;;0.10;0.10;;;;;;;20.07;100.00;97036.03;5106794;27;20142;-78
2023/09/07 08:17:29;;;;;;;0.00;0.00;;;;;;;20.10;100.00;97032.72;5098144;27;20130;-78
2023/09/07 08:20:16;;;;;;;0.10;0.10;;;;;;;20.15;100.00;97029.91;5099656;27;20608;-78
2023/09/07 08:23:03;;;;;;;0.05;0.05;;;;;;;20.27;100.00;97024.84;5095298;27;20058;-78
2023/09/07 08:25:53;;;;;;;0.10;0.10;;;;;;;20.37;100.00;97019.22;5098489;27;20123;-78
2023/09/07 08:28:40;;;;;;;0.00;0.00;;;;;;;20.46;100.00;97016.66;5095120;27;20035;-78
2023/09/07 08:31:26;;;;;;;0.10;0.10;;;;;;;20.58;100.00;97025.16;5108751;27;20506;-79
2023/09/07 08:34:13;;;;;;;0.10;0.10;;;;;;;20.65;100.00;97024.78;5112037;27;20047;-78
2023/09/07 08:36:59;;;;;;;0.00;0.00;;;;;;;20.60;100.00;97020.22;5098750;27;20035;-78
2023/09/07 08:39:45;;;;;;;0.00;0.00;;;;;;;20.70;100.00;97030.09;5111686;27;20074;-79
2023/09/07 08:42:31;;;;;;;0.08;0.08;;;;;;;20.80;100.00;97030.75;5096977;27;20843;-78
2023/09/07 08:45:21;;;;;;;0.10;0.10;;;;;;;20.91;100.00;97025.91;5112531;28;20043;-79
2023/09/07 08:48:10;;;;;;;0.10;0.10;;;;;;;21.04;100.00;97021.59;5110431;28;20497;-80
2023/09/07 08:50:56;;;;;;;0.00;0.00;;;;;;;21.19;100.00;97024.03;5110906;28;20047;-79
2023/09/07 08:53:45;;;;;;;0.03;0.03;;;;;;;21.32;100.00;97034.13;5098351;28;20046;-79
2023/09/07 08:56:32;;;;;;;0.00;0.00;;;;;;;21.47;100.00;97016.66;5112221;27;20620;-81
2023/09/07 08:59:18;;;;;;;0.10;0.10;;;;;;;21.60;100.00;97015.03;5115296;27;20313;-80
2023/09/07 09:02:09;;;;;;;0.10;0.10;;;;;;;21.59;100.00;97014.22;5113339;27;20044;-79
2023/09/07 09:04:55;;;;;;;0.10;0.10;;;;;;;21.69;100.00;97011.25;5115230;27;20035;-80
2023/09/07 09:07:41;;;;;;;0.10;0.10;;;;;;;21.78;100.00;97019.50;5100314;27;20047;-79
2023/09/07 09:10:26;;;;;;;0.00;0.00;;;;;;;21.75;100.00;97025.59;5117100;27;20039;-79
2023/09/07 09:13:13;;;;;;;0.00;0.00;;;;;;;21.90;100.00;97027.97;5117603;27;20077;-79
2023/09/07 09:16:02;;;;;;;0.00;0.00;;;;;;;22.11;100.00;97028.34;5118569;27;20039;-79
2023/09/07 09:18:52;;;;;;;0.00;0.00;;;;;;;22.13;100.00;97028.81;5125873;27;20061;-80
2023/09/07 09:21:38;;;;;;;0.00;0.00;;;;;;;22.26;100.00;97018.97;5136318;27;20088;-80
2023/09/07 09:24:24;;;;;;;0.00;0.00;;;;;;;22.41;100.00;97018.59;5136469;27;20046;-78
2023/09/07 09:27:10;;;;;;;0.00;0.00;;;;;;;22.46;100.00;97023.91;5124391;27;20031;-81
2023/09/07 09:29:58;;;;;;;0.00;0.00;;;;;;;22.67;100.00;97020.69;5092933;27;20046;-79
2023/09/07 09:32:46;;;;;;;0.08;0.08;;;;;;;22.80;100.00;97011.56;5106846;27;20142;-79
2023/09/07 09:35:34;;;;;;;0.00;0.00;;;;;;;22.93;100.00;97018.09;5114624;27;20043;-82
2023/09/07 09:38:20;;;;;;;0.03;0.03;;;;;;;22.92;100.00;97019.22;5113352;27;20047;-80
2023/09/07 09:41:09;;;;;;;0.00;0.00;;;;;;;22.79;100.00;97004.50;5099993;27;20038;-78
2023/09/07 09:43:55;;;;;;;0.00;0.00;;;;;;;22.76;100.00;97005.16;5092741;27;20122;-79
2023/09/07 09:46:43;;;;;;;0.05;0.05;;;;;;;22.74;100.00;97010.13;5113905;27;20049;-79
2023/09/07 09:49:29;;;;;;;0.08;0.08;;;;;;;23.20;100.00;97009.72;5112713;27;20497;-79
2023/09/07 09:52:18;;;;;;;0.10;0.10;;;;;;;23.14;100.00;96997.31;5114321;27;20569;-80
2023/09/07 09:55:08;;;;;;;0.00;0.00;;;;;;;23.05;100.00;97002.75;5114307;27;20045;-80
2023/09/07 09:57:57;;;;;;;0.10;0.10;;;;;;;23.43;100.00;96999.50;5115571;27;20035;-80
2023/09/07 10:00:46;;;;;;;0.00;0.00;;;;;;;23.42;100.00;96997.84;5112509;27;20731;-80
2023/09/07 10:03:35;;;;;;;0.00;0.00;;;;;;;23.61;100.00;96998.41;5110942;27;20531;-79
2023/09/07 10:06:25;;;;;;;0.00;0.00;;;;;;;23.76;100.00;96986.22;5112327;27;20039;-79
2023/09/07 10:09:17;;;;;;;0.10;0.10;;;;;;;23.95;99.51;96994.09;5112486;27;20047;-80
2023/09/07 10:12:04;;;;;;;0.08;0.08;;;;;;;23.81;98.40;96991.53;5115448;27;20039;-80
2023/09/07 10:14:51;;;;;;;0.00;0.00;;;;;;;23.71;97.74;96994.56;5114846;27;20438;-80
2023/09/07 10:17:40;;;;;;;0.10;0.10;;;;;;;23.92;97.54;96983.81;5112083;27;20064;-78
2023/09/07 10:20:25;;;;;;;0.10;0.10;;;;;;;24.26;98.54;96982.16;5113563;27;20062;-79
2023/09/07 10:23:11;;;;;;;0.10;0.10;;;;;;;24.37;94.89;96976.09;5103590;27;20051;-80
2023/09/07 10:25:57;;;;;;;0.10;0.10;;;;;;;24.61;96.69;96970.06;5116857;27;20923;-79
2023/09/07 10:28:45;;;;;;;0.10;0.10;;;;;;;24.85;94.40;96979.66;5111801;27;20039;-79
2023/09/07 10:31:31;;;;;;;0.10;0.10;;;;;;;24.80;92.89;96974.34;5111383;27;20061;-80
2023/09/07 10:34:17;;;;;;;0.10;0.10;;;;;;;25.37;89.10;96979.41;5110708;27;20753;-79
2023/09/07 10:37:04;;;;;;;0.10;0.10;;;;;;;26.20;88.65;96973.97;5112974;27;20047;-79
2023/09/07 10:39:50;;;;;;;0.10;0.10;;;;;;;28.51;79.69;96983.31;5096914;27;20130;-80
2023/09/07 10:42:36;;;;;;;0.20;0.20;;;;;;;29.99;60.28;96969.94;5107233;27;21107;-80
2023/09/07 10:45:22;;;;;;;0.10;0.10;;;;;;;31.84;46.37;96969.69;5097587;27;20044;-81
2023/09/07 10:48:08;;;;;;;0.10;0.10;;;;;;;31.82;45.44;96972.78;5096055;27;20553;-81
2023/09/07 10:50:54;;;;;;;0.10;0.10;;;;;;;32.88;42.88;96968.91;5107546;27;20035;-81
2023/09/07 10:53:41;;;;;;;0.10;0.10;;;;;;;32.56;39.51;96954.72;5086572;28;20067;-81
2023/09/07 10:56:27;;;;;;;0.10;0.10;;;;;;;32.86;39.08;96958.22;5088804;28;20036;-82
2023/09/07 10:59:13;;;;;;;0.10;0.10;;;;;;;32.70;38.57;96958.44;5086176;28;20516;-78
2023/09/07 11:02:06;;;;;;;0.00;0.00;;;;;;;34.12;35.40;96957.91;5088497;28;20114;-81
2023/09/07 11:04:52;;;;;;;0.10;0.10;;;;;;;33.41;35.61;96955.53;5092320;28;20394;-80
2023/09/07 11:07:39;;;;;;;0.10;0.10;;;;;;;33.67;35.96;96950.91;5088571;28;20072;-80
2023/09/07 11:10:25;;;;;;;0.00;0.00;;;;;;;35.33;30.39;96958.16;5075415;28;20040;-80
2023/09/07 11:13:17;;;;;;;0.10;0.10;;;;;;;35.24;30.12;96954.16;5085418;28;20062;-81
2023/09/07 11:16:08;;;;;;;0.10;0.10;;;;;;;35.38;29.42;96952.19;5092648;28;20466;-80
2023/09/07 11:18:54;;;;;;;;;;;;;;;34.43;30.77;96950.91;5086592;28;20040;-81
2023/09/07 11:21:40;;;;;;;0.13;0.13;;;;;;;34.73;31.97;96935.88;5078318;28;19947;-81
2023/09/07 11:24:26;;;;;;;0.10;0.10;;;;;;;36.47;28.81;96930.00;5072348;28;20067;-81
2023/09/07 11:27:12;;;;;;;0.10;0.10;;;;;;;36.46;29.29;96938.78;5070490;28;20451;-81
2023/09/07 11:29:58;;;;;;;0.10;0.10;;;;;;;38.10;26.44;96935.34;5090341;28;20074;-80
2023/09/07 11:32:45;;;;;;;0.10;0.10;;;;;;;38.30;24.92;96923.56;5074789;28;20057;-79
2023/09/07 11:35:31;;;;;;;0.20;0.20;;;;;;;36.52;25.37;96935.16;5091004;28;20046;-82
2023/09/07 11:38:17;;;;;;;0.10;0.10;;;;;;;36.12;26.25;96936.53;5084977;28;20047;-80
2023/09/07 11:41:03;;;;;;;0.10;0.10;;;;;;;36.72;25.87;96934.59;5089901;28;20035;-80
2023/09/07 11:43:51;;;;;;;0.10;0.10;;;;;;;36.90;26.06;96931.75;5085578;28;20040;-81
2023/09/07 11:46:37;;;;;;;0.10;0.10;;;;;;;37.45;26.86;96928.88;5088206;28;20048;-81
2023/09/07 11:49:24;;;;;;;0.10;0.10;;;;;;;37.47;25.69;96925.66;5087305;28;21573;-82
2023/09/07 11:52:10;;;;;;;0.10;0.10;;;;;;;37.97;24.37;96925.91;5101984;27;20568;-81
2023/09/07 11:54:56;;;;;;;0.10;0.10;;;;;;;36.71;25.31;96928.25;5095982;27;20035;-81
2023/09/07 11:57:42;;;;;;;0.10;0.10;;;;;;;36.47;24.37;96938.34;5104128;27;20047;-82
2023/09/07 12:00:30;;;;;;;0.10;0.10;;;;;;;36.92;23.90;96920.97;5110123;27;20039;-81
2023/09/07 12:03:17;;;;;;;0.10;0.10;;;;;;;39.74;22.73;96926.44;5091645;27;20119;-82
2023/09/07 12:06:03;;;;;;;0.10;0.10;;;;;;;39.73;22.92;96927.66;5107575;27;20043;-81
2023/09/07 12:09:00;;;;;;;0.00;0.00;;;;;;;38.28;22.14;96925.97;5106822;27;20074;-81
2023/09/07 12:11:45;;;;;;;0.10;0.10;;;;;;;38.85;23.58;96922.38;5111920;27;20047;-81
2023/09/07 12:14:32;;;;;;;0.10;0.10;;;;;;;38.98;23.53;96917.75;5110482;27;20050;-81
2023/09/07 12:17:19;;;;;;;0.10;0.10;;;;;;;38.25;22.03;96916.44;5103026;27;20043;-82
2023/09/07 12:20:09;;;;;;;0.08;0.08;;;;;;;37.70;24.13;96919.44;5112640;27;21281;-83
2023/09/07 12:22:55;;;;;;;0.00;0.00;;;;;;;38.29;23.77;96922.78;5094023;27;20487;-81
2023/09/07 12:25:41;;;;;;;0.10;0.10;;;;;;;38.70;23.27;96913.41;5112296;27;20493;-84
2023/09/07 12:28:27;;;;;;;0.00;0.00;;;;;;;39.72;21.44;96910.09;5114209;27;20035;-82
2023/09/07 12:31:14;;;;;;;0.00;0.00;;;;;;;40.42;21.76;96911.84;5133909;27;20061;-82
2023/09/07 12:33:59;;;;;;;0.10;0.10;;;;;;;38.44;22.18;96914.97;5130986;27;20068;-83
2023/09/07 12:36:45;;;;;;;0.10;0.10;;;;;;;40.40;22.07;96911.50;5114581;27;20043;-81
2023/09/07 12:39:34;;;;;;;0.10;0.10;;;;;;;40.44;22.84;96908.59;5112958;27;20521;-83
2023/09/07 12:42:21;;;;;;;0.10;0.10;;;;;;;43.44;20.38;96906.63;5092065;27;20747;-82
2023/09/07 12:45:09;;;;;;;0.08;0.08;;;;;;;42.04;21.09;96913.00;5112037;27;20047;-82
2023/09/07 12:47:55;;;;;;;0.00;0.00;;;;;;;41.41;20.96;96907.91;5108967;28;20221;-82
2023/09/07 12:50:40;;;;;;;0.10;0.10;;;;;;;41.26;21.61;96909.50;5111754;27;20031;-82
2023/09/07 12:53:27;;;;;;;0.10;0.10;;;;;;;40.28;21.29;96917.75;5093618;28;20046;-82
2023/09/07 12:56:15;;;;;;;0.10;0.10;;;;;;;39.76;22.21;96910.78;5110965;28;20501;-83
2023/09/07 12:59:03;;;;;;;0.10;0.10;;;;;;;39.65;21.97;96910.22;5094162;28;20035;-83